sensor_id;sensor_type;location;lat;lon;timestamp;P1;durP1;ratioP1;P2;durP2;ratioP2
20497;SDS011;10407;53.238;10.448;2023-11-18T00:01:55;136.77;;;36.17;;
20497;SDS011;10407;53.238;10.448;2023-11-18T00:04:23;133.60;;;32.27;;
20497;SDS011;10407;53.238;10.448;2023-11-18T00:06:50;142.67;;;34.33;;
20497;SDS011;10407;53.238;10.448;2023-11-18T00:09:20;134.70;;;33.43;;
20497;SDS011;10407;53.238;10.448;2023-11-18T00:11:49;134.00;;;32.33;;
20497;SDS011;10407;53.238;10.448;2023-11-18T00:14:16;135.63;;;34.03;;
20497;SDS011;10407;53.238;10.448;2023-11-18T00:16:44;135.27;;;33.33;;
20497;SDS011;10407;53.238;10.448;2023-11-18T00:19:12;134.33;;;32.10;;
20497;SDS011;10407;53.238;10.448;2023-11-18T00:21:39;135.00;;;36.17;;
20497;SDS011;10407;53.238;10.448;2023-11-18T00:24:08;136.47;;;33.07;;
20497;SDS011;10407;53.238;10.448;2023-11-18T00:26:36;136.77;;;33.40;;
20497;SDS011;10407;53.238;10.448;2023-11-18T00:29:03;134.37;;;34.00;;
20497;SDS011;10407;53.238;10.448;2023-11-18T00:31:31;135.70;;;32.33;;
20497;SDS011;10407;53.238;10.448;2023-11-18T00:33:58;132.30;;;31.67;;
20497;SDS011;10407;53.238;10.448;2023-11-18T00:36:26;136.13;;;35.20;;
20497;SDS011;10407;53.238;10.448;2023-11-18T00:38:54;135.93;;;36.17;;
20497;SDS011;10407;53.238;10.448;2023-11-18T00:41:21;132.97;;;31.00;;
20497;SDS011;10407;53.238;10.448;2023-11-18T00:43:49;133.43;;;33.17;;
20497;SDS011;10407;53.238;10.448;2023-11-18T00:46:16;132.27;;;29.93;;
20497;SDS011;10407;53.238;10.448;2023-11-18T00:48:44;133.77;;;31.20;;
20497;SDS011;10407;53.238;10.448;2023-11-18T00:51:12;131.50;;;30.03;;
20497;SDS011;10407;53.238;10.448;2023-11-18T00:53:39;133.30;;;31.63;;
20497;SDS011;10407;53.238;10.448;2023-11-18T00:56:07;129.47;;;28.80;;
20497;SDS011;10407;53.238;10.448;2023-11-18T00:58:36;131.43;;;28.70;;
20497;SDS011;10407;53.238;10.448;2023-11-18T01:01:06;132.00;;;30.87;;
20497;SDS011;10407;53.238;10.448;2023-11-18T01:03:33;129.27;;;27.50;;
20497;SDS011;10407;53.238;10.448;2023-11-18T01:06:01;132.37;;;28.90;;
20497;SDS011;10407;53.238;10.448;2023-11-18T01:08:28;138.13;;;30.00;;
20497;SDS011;10407;53.238;10.448;2023-11-18T01:10:56;133.57;;;30.43;;
20497;SDS011;10407;53.238;10.448;2023-11-18T01:13:23;132.93;;;31.33;;
20497;SDS011;10407;53.238;10.448;2023-11-18T01:15:52;130.47;;;29.47;;
20497;SDS011;10407;53.238;10.448;2023-11-18T01:18:20;132.07;;;28.90;;
20497;SDS011;10407;53.238;10.448;2023-11-18T01:20:47;131.90;;;29.57;;
20497;SDS011;10407;53.238;10.448;2023-11-18T01:23:15;133.70;;;32.40;;
20497;SDS011;10407;53.238;10.448;2023-11-18T01:25:42;138.10;;;32.20;;
20497;SDS011;10407;53.238;10.448;2023-11-18T01:28:10;134.27;;;28.20;;
20497;SDS011;10407;53.238;10.448;2023-11-18T01:30:37;155.90;;;31.37;;
20497;SDS011;10407;53.238;10.448;2023-11-18T01:33:05;133.00;;;29.03;;
20497;SDS011;10407;53.238;10.448;2023-11-18T01:35:34;131.97;;;28.27;;
20497;SDS011;10407;53.238;10.448;2023-11-18T01:38:01;130.97;;;29.97;;
20497;SDS011;10407;53.238;10.448;2023-11-18T01:40:30;129.63;;;27.33;;
20497;SDS011;10407;53.238;10.448;2023-11-18T01:42:59;133.17;;;30.40;;
20497;SDS011;10407;53.238;10.448;2023-11-18T01:45:27;131.83;;;30.30;;
20497;SDS011;10407;53.238;10.448;2023-11-18T01:47:56;128.87;;;27.17;;
20497;SDS011;10407;53.238;10.448;2023-11-18T01:50:24;131.77;;;29.63;;
20497;SDS011;10407;53.238;10.448;2023-11-18T01:52:51;131.87;;;28.30;;
20497;SDS011;10407;53.238;10.448;2023-11-18T01:55:19;132.43;;;30.23;;
20497;SDS011;10407;53.238;10.448;2023-11-18T01:57:47;127.40;;;28.13;;
20497;SDS011;10407;53.238;10.448;2023-11-18T02:00:16;132.77;;;28.57;;
20497;SDS011;10407;53.238;10.448;2023-11-18T02:02:44;130.97;;;27.63;;
20497;SDS011;10407;53.238;10.448;2023-11-18T02:05:12;129.70;;;27.70;;
20497;SDS011;10407;53.238;10.448;2023-11-18T02:07:39;131.43;;;29.37;;
20497;SDS011;10407;53.238;10.448;2023-11-18T02:10:07;132.50;;;32.43;;
20497;SDS011;10407;53.238;10.448;2023-11-18T02:15:35;133.47;;;32.10;;
20497;SDS011;10407;53.238;10.448;2023-11-18T02:18:06;131.97;;;28.20;;
20497;SDS011;10407;53.238;10.448;2023-11-18T02:20:37;132.00;;;30.50;;
20497;SDS011;10407;53.238;10.448;2023-11-18T02:23:05;131.60;;;30.97;;
20497;SDS011;10407;53.238;10.448;2023-11-18T02:25:34;133.87;;;29.10;;
20497;SDS011;10407;53.238;10.448;2023-11-18T02:28:04;131.90;;;30.20;;
20497;SDS011;10407;53.238;10.448;2023-11-18T02:30:32;133.23;;;31.10;;
20497;SDS011;10407;53.238;10.448;2023-11-18T02:33:02;132.10;;;28.73;;
20497;SDS011;10407;53.238;10.448;2023-11-18T02:35:40;131.67;;;27.33;;
20497;SDS011;10407;53.238;10.448;2023-11-18T02:38:04;132.70;;;30.93;;
20497;SDS011;10407;53.238;10.448;2023-11-18T02:40:35;132.37;;;29.20;;
20497;SDS011;10407;53.238;10.448;2023-11-18T02:43:04;133.47;;;31.47;;
20497;SDS011;10407;53.238;10.448;2023-11-18T02:45:32;133.17;;;31.73;;
20497;SDS011;10407;53.238;10.448;2023-11-18T02:48:02;129.87;;;27.57;;
20497;SDS011;10407;53.238;10.448;2023-11-18T02:50:32;135.17;;;29.07;;
20497;SDS011;10407;53.238;10.448;2023-11-18T02:53:01;129.13;;;27.00;;
20497;SDS011;10407;53.238;10.448;2023-11-18T02:55:29;132.17;;;31.27;;
20497;SDS011;10407;53.238;10.448;2023-11-18T02:57:56;135.37;;;33.00;;
20497;SDS011;10407;53.238;10.448;2023-11-18T03:00:24;132.63;;;30.40;;
20497;SDS011;10407;53.238;10.448;2023-11-18T03:02:51;130.87;;;29.77;;
20497;SDS011;10407;53.238;10.448;2023-11-18T03:05:19;131.47;;;29.80;;
20497;SDS011;10407;53.238;10.448;2023-11-18T03:07:47;132.10;;;30.37;;
20497;SDS011;10407;53.238;10.448;2023-11-18T03:10:20;133.40;;;31.30;;
20497;SDS011;10407;53.238;10.448;2023-11-18T03:12:48;130.00;;;30.77;;
20497;SDS011;10407;53.238;10.448;2023-11-18T03:18:07;130.57;;;31.77;;
20497;SDS011;10407;53.238;10.448;2023-11-18T03:20:34;132.50;;;28.80;;
20497;SDS011;10407;53.238;10.448;2023-11-18T03:23:02;136.13;;;32.53;;
20497;SDS011;10407;53.238;10.448;2023-11-18T03:25:37;133.57;;;29.50;;
20497;SDS011;10407;53.238;10.448;2023-11-18T03:28:04;130.50;;;29.63;;
20497;SDS011;10407;53.238;10.448;2023-11-18T03:30:32;133.30;;;30.93;;
20497;SDS011;10407;53.238;10.448;2023-11-18T03:33:02;136.30;;;29.33;;
20497;SDS011;10407;53.238;10.448;2023-11-18T03:35:29;131.37;;;29.47;;
20497;SDS011;10407;53.238;10.448;2023-11-18T03:37:57;134.40;;;31.47;;
20497;SDS011;10407;53.238;10.448;2023-11-18T03:40:24;130.50;;;29.17;;
20497;SDS011;10407;53.238;10.448;2023-11-18T03:42:54;129.80;;;27.93;;
20497;SDS011;10407;53.238;10.448;2023-11-18T03:45:22;132.37;;;32.30;;
20497;SDS011;10407;53.238;10.448;2023-11-18T03:47:49;132.60;;;30.00;;
20497;SDS011;10407;53.238;10.448;2023-11-18T03:50:17;129.47;;;28.13;;
20497;SDS011;10407;53.238;10.448;2023-11-18T03:52:45;135.77;;;33.37;;
20497;SDS011;10407;53.238;10.448;2023-11-18T03:55:12;130.17;;;28.50;;
20497;SDS011;10407;53.238;10.448;2023-11-18T03:57:40;132.40;;;31.33;;
20497;SDS011;10407;53.238;10.448;2023-11-18T04:00:08;132.07;;;30.37;;
20497;SDS011;10407;53.238;10.448;2023-11-18T04:02:37;133.37;;;29.30;;
20497;SDS011;10407;53.238;10.448;2023-11-18T04:05:05;131.80;;;28.90;;
20497;SDS011;10407;53.238;10.448;2023-11-18T04:07:34;131.47;;;29.60;;
20497;SDS011;10407;53.238;10.448;2023-11-18T04:10:01;131.23;;;30.00;;
20497;SDS011;10407;53.238;10.448;2023-11-18T04:12:31;129.20;;;29.20;;
20497;SDS011;10407;53.238;10.448;2023-11-18T04:14:58;133.73;;;34.00;;
20497;SDS011;10407;53.238;10.448;2023-11-18T04:17:26;133.23;;;31.20;;
20497;SDS011;10407;53.238;10.448;2023-11-18T04:19:54;132.43;;;29.70;;
20497;SDS011;10407;53.238;10.448;2023-11-18T04:22:22;132.60;;;32.07;;
20497;SDS011;10407;53.238;10.448;2023-11-18T04:24:50;131.40;;;32.17;;
20497;SDS011;10407;53.238;10.448;2023-11-18T04:27:17;132.40;;;30.90;;
20497;SDS011;10407;53.238;10.448;2023-11-18T04:29:45;132.67;;;30.27;;
20497;SDS011;10407;53.238;10.448;2023-11-18T04:32:12;131.00;;;31.30;;
20497;SDS011;10407;53.238;10.448;2023-11-18T04:34:40;131.20;;;29.20;;
20497;SDS011;10407;53.238;10.448;2023-11-18T04:37:09;138.50;;;32.53;;
20497;SDS011;10407;53.238;10.448;2023-11-18T04:39:36;135.37;;;29.40;;
20497;SDS011;10407;53.238;10.448;2023-11-18T04:42:04;133.97;;;31.87;;
20497;SDS011;10407;53.238;10.448;2023-11-18T04:44:32;136.47;;;31.23;;
20497;SDS011;10407;53.238;10.448;2023-11-18T04:47:00;127.77;;;28.10;;
20497;SDS011;10407;53.238;10.448;2023-11-18T04:49:28;131.90;;;28.00;;
20497;SDS011;10407;53.238;10.448;2023-11-18T04:51:55;131.43;;;30.23;;
20497;SDS011;10407;53.238;10.448;2023-11-18T04:54:24;130.00;;;28.67;;
20497;SDS011;10407;53.238;10.448;2023-11-18T04:56:52;130.70;;;27.90;;
20497;SDS011;10407;53.238;10.448;2023-11-18T04:59:20;133.10;;;27.77;;
20497;SDS011;10407;53.238;10.448;2023-11-18T05:01:47;130.97;;;30.57;;
20497;SDS011;10407;53.238;10.448;2023-11-18T05:04:15;130.80;;;29.93;;
20497;SDS011;10407;53.238;10.448;2023-11-18T05:06:42;128.57;;;27.63;;
20497;SDS011;10407;53.238;10.448;2023-11-18T05:09:10;135.27;;;32.43;;
20497;SDS011;10407;53.238;10.448;2023-11-18T05:11:37;130.60;;;30.07;;
20497;SDS011;10407;53.238;10.448;2023-11-18T05:14:05;129.43;;;27.60;;
20497;SDS011;10407;53.238;10.448;2023-11-18T05:16:33;129.57;;;26.97;;
20497;SDS011;10407;53.238;10.448;2023-11-18T05:19:00;129.47;;;28.70;;
20497;SDS011;10407;53.238;10.448;2023-11-18T05:21:28;130.97;;;30.97;;
20497;SDS011;10407;53.238;10.448;2023-11-18T05:23:56;131.00;;;29.67;;
20497;SDS011;10407;53.238;10.448;2023-11-18T05:26:23;131.80;;;28.37;;
20497;SDS011;10407;53.238;10.448;2023-11-18T05:28:52;138.20;;;28.10;;
20497;SDS011;10407;53.238;10.448;2023-11-18T05:31:20;130.00;;;29.50;;
20497;SDS011;10407;53.238;10.448;2023-11-18T05:33:48;130.40;;;26.73;;
20497;SDS011;10407;53.238;10.448;2023-11-18T05:36:17;132.70;;;27.63;;
20497;SDS011;10407;53.238;10.448;2023-11-18T05:38:46;131.37;;;28.70;;
20497;SDS011;10407;53.238;10.448;2023-11-18T05:41:14;130.87;;;29.30;;
20497;SDS011;10407;53.238;10.448;2023-11-18T05:43:43;131.07;;;27.60;;
20497;SDS011;10407;53.238;10.448;2023-11-18T05:46:12;130.80;;;28.37;;
20497;SDS011;10407;53.238;10.448;2023-11-18T05:48:53;130.73;;;26.00;;
20497;SDS011;10407;53.238;10.448;2023-11-18T05:51:22;130.97;;;27.80;;
20497;SDS011;10407;53.238;10.448;2023-11-18T05:53:51;129.77;;;26.90;;
20497;SDS011;10407;53.238;10.448;2023-11-18T05:56:19;133.43;;;28.17;;
20497;SDS011;10407;53.238;10.448;2023-11-18T05:58:51;129.27;;;26.07;;
20497;SDS011;10407;53.238;10.448;2023-11-18T06:01:19;131.80;;;27.10;;
20497;SDS011;10407;53.238;10.448;2023-11-18T06:03:46;130.07;;;27.47;;
20497;SDS011;10407;53.238;10.448;2023-11-18T06:06:15;131.40;;;28.13;;
20497;SDS011;10407;53.238;10.448;2023-11-18T06:08:43;129.97;;;26.30;;
20497;SDS011;10407;53.238;10.448;2023-11-18T06:11:11;132.87;;;28.70;;
20497;SDS011;10407;53.238;10.448;2023-11-18T06:13:40;134.87;;;27.90;;
20497;SDS011;10407;53.238;10.448;2023-11-18T06:16:13;131.70;;;27.43;;
20497;SDS011;10407;53.238;10.448;2023-11-18T06:18:43;131.67;;;28.30;;
20497;SDS011;10407;53.238;10.448;2023-11-18T06:21:16;131.47;;;30.47;;
20497;SDS011;10407;53.238;10.448;2023-11-18T06:23:41;131.00;;;30.20;;
20497;SDS011;10407;53.238;10.448;2023-11-18T06:26:09;132.07;;;28.90;;
20497;SDS011;10407;53.238;10.448;2023-11-18T06:28:38;130.97;;;27.67;;
20497;SDS011;10407;53.238;10.448;2023-11-18T06:31:06;130.60;;;30.03;;
20497;SDS011;10407;53.238;10.448;2023-11-18T06:33:40;131.57;;;27.90;;
20497;SDS011;10407;53.238;10.448;2023-11-18T06:38:48;133.77;;;27.57;;
20497;SDS011;10407;53.238;10.448;2023-11-18T06:41:17;132.10;;;25.87;;
20497;SDS011;10407;53.238;10.448;2023-11-18T06:43:48;132.00;;;29.97;;
20497;SDS011;10407;53.238;10.448;2023-11-18T06:46:26;130.23;;;27.60;;
20497;SDS011;10407;53.238;10.448;2023-11-18T06:49:00;129.53;;;26.90;;
20497;SDS011;10407;53.238;10.448;2023-11-18T06:51:36;132.80;;;28.70;;
20497;SDS011;10407;53.238;10.448;2023-11-18T06:54:05;131.27;;;29.23;;
20497;SDS011;10407;53.238;10.448;2023-11-18T06:56:36;131.90;;;29.47;;
20497;SDS011;10407;53.238;10.448;2023-11-18T06:59:05;131.93;;;30.40;;
20497;SDS011;10407;53.238;10.448;2023-11-18T07:01:33;132.57;;;29.27;;
20497;SDS011;10407;53.238;10.448;2023-11-18T07:04:01;132.57;;;28.60;;
20497;SDS011;10407;53.238;10.448;2023-11-18T07:06:29;134.17;;;30.10;;
20497;SDS011;10407;53.238;10.448;2023-11-18T07:08:57;135.27;;;32.07;;
20497;SDS011;10407;53.238;10.448;2023-11-18T07:11:26;133.83;;;31.90;;
20497;SDS011;10407;53.238;10.448;2023-11-18T07:13:54;132.23;;;29.93;;
20497;SDS011;10407;53.238;10.448;2023-11-18T07:16:23;134.70;;;29.67;;
20497;SDS011;10407;53.238;10.448;2023-11-18T07:18:51;136.07;;;29.07;;
20497;SDS011;10407;53.238;10.448;2023-11-18T07:21:19;144.07;;;34.03;;
20497;SDS011;10407;53.238;10.448;2023-11-18T07:23:46;131.30;;;27.20;;
20497;SDS011;10407;53.238;10.448;2023-11-18T07:26:14;130.00;;;27.60;;
20497;SDS011;10407;53.238;10.448;2023-11-18T07:28:41;128.57;;;26.43;;
20497;SDS011;10407;53.238;10.448;2023-11-18T07:31:10;131.30;;;29.97;;
20497;SDS011;10407;53.238;10.448;2023-11-18T07:33:38;128.37;;;26.33;;
20497;SDS011;10407;53.238;10.448;2023-11-18T07:36:05;134.60;;;30.50;;
20497;SDS011;10407;53.238;10.448;2023-11-18T07:38:35;132.57;;;29.73;;
20497;SDS011;10407;53.238;10.448;2023-11-18T07:41:03;133.33;;;32.13;;
20497;SDS011;10407;53.238;10.448;2023-11-18T07:43:32;132.33;;;30.90;;
20497;SDS011;10407;53.238;10.448;2023-11-18T07:46:02;132.90;;;31.70;;
20497;SDS011;10407;53.238;10.448;2023-11-18T07:48:32;127.90;;;26.30;;
20497;SDS011;10407;53.238;10.448;2023-11-18T07:51:01;131.10;;;27.60;;
20497;SDS011;10407;53.238;10.448;2023-11-18T07:53:29;128.20;;;26.10;;
20497;SDS011;10407;53.238;10.448;2023-11-18T07:55:57;130.47;;;27.77;;
20497;SDS011;10407;53.238;10.448;2023-11-18T07:58:26;127.70;;;23.47;;
20497;SDS011;10407;53.238;10.448;2023-11-18T08:00:54;129.60;;;26.23;;
20497;SDS011;10407;53.238;10.448;2023-11-18T08:03:21;133.40;;;27.63;;
20497;SDS011;10407;53.238;10.448;2023-11-18T08:05:49;127.80;;;27.27;;
20497;SDS011;10407;53.238;10.448;2023-11-18T08:08:16;128.97;;;26.27;;
20497;SDS011;10407;53.238;10.448;2023-11-18T08:10:44;131.90;;;28.70;;
20497;SDS011;10407;53.238;10.448;2023-11-18T08:13:13;132.47;;;26.07;;
20497;SDS011;10407;53.238;10.448;2023-11-18T08:15:42;127.97;;;26.30;;
20497;SDS011;10407;53.238;10.448;2023-11-18T08:18:13;131.47;;;29.20;;
20497;SDS011;10407;53.238;10.448;2023-11-18T08:20:41;129.90;;;27.70;;
20497;SDS011;10407;53.238;10.448;2023-11-18T08:23:10;155.87;;;35.70;;
20497;SDS011;10407;53.238;10.448;2023-11-18T08:25:38;155.53;;;36.10;;
20497;SDS011;10407;53.238;10.448;2023-11-18T08:28:07;134.77;;;28.63;;
20497;SDS011;10407;53.238;10.448;2023-11-18T08:30:37;150.77;;;36.80;;
20497;SDS011;10407;53.238;10.448;2023-11-18T08:33:05;143.23;;;32.60;;
20497;SDS011;10407;53.238;10.448;2023-11-18T08:35:36;143.87;;;31.17;;
20497;SDS011;10407;53.238;10.448;2023-11-18T08:38:03;134.87;;;27.30;;
20497;SDS011;10407;53.238;10.448;2023-11-18T08:40:33;131.77;;;28.50;;
20497;SDS011;10407;53.238;10.448;2023-11-18T08:43:02;135.60;;;30.07;;
20497;SDS011;10407;53.238;10.448;2023-11-18T08:45:31;132.07;;;28.33;;
20497;SDS011;10407;53.238;10.448;2023-11-18T08:47:59;129.00;;;26.00;;
20497;SDS011;10407;53.238;10.448;2023-11-18T08:50:30;130.97;;;27.20;;
20497;SDS011;10407;53.238;10.448;2023-11-18T08:52:57;129.07;;;26.57;;
20497;SDS011;10407;53.238;10.448;2023-11-18T08:55:30;131.43;;;24.70;;
20497;SDS011;10407;53.238;10.448;2023-11-18T08:58:13;131.00;;;30.27;;
20497;SDS011;10407;53.238;10.448;2023-11-18T09:00:51;131.10;;;28.90;;
20497;SDS011;10407;53.238;10.448;2023-11-18T09:03:21;128.20;;;25.50;;
20497;SDS011;10407;53.238;10.448;2023-11-18T09:05:58;131.43;;;26.30;;
20497;SDS011;10407;53.238;10.448;2023-11-18T09:08:30;129.80;;;23.60;;
20497;SDS011;10407;53.238;10.448;2023-11-18T09:11:01;131.03;;;25.83;;
20497;SDS011;10407;53.238;10.448;2023-11-18T09:13:30;132.27;;;27.67;;
20497;SDS011;10407;53.238;10.448;2023-11-18T09:16:06;131.37;;;27.23;;
20497;SDS011;10407;53.238;10.448;2023-11-18T09:18:32;129.97;;;27.57;;
20497;SDS011;10407;53.238;10.448;2023-11-18T09:21:01;131.63;;;26.73;;
20497;SDS011;10407;53.238;10.448;2023-11-18T09:23:31;132.30;;;26.70;;
20497;SDS011;10407;53.238;10.448;2023-11-18T09:26:00;130.60;;;27.70;;
20497;SDS011;10407;53.238;10.448;2023-11-18T09:28:30;128.50;;;26.63;;
20497;SDS011;10407;53.238;10.448;2023-11-18T09:30:57;128.27;;;26.50;;
20497;SDS011;10407;53.238;10.448;2023-11-18T09:33:26;128.10;;;24.60;;
20497;SDS011;10407;53.238;10.448;2023-11-18T09:35:57;130.20;;;24.67;;
20497;SDS011;10407;53.238;10.448;2023-11-18T09:38:28;128.27;;;25.13;;
20497;SDS011;10407;53.238;10.448;2023-11-18T09:40:59;125.97;;;26.87;;
20497;SDS011;10407;53.238;10.448;2023-11-18T09:43:32;124.67;;;24.57;;
20497;SDS011;10407;53.238;10.448;2023-11-18T09:46:03;128.00;;;27.80;;
20497;SDS011;10407;53.238;10.448;2023-11-18T09:48:37;124.57;;;25.37;;
20497;SDS011;10407;53.238;10.448;2023-11-18T09:51:20;125.60;;;26.17;;
20497;SDS011;10407;53.238;10.448;2023-11-18T09:53:52;128.63;;;26.27;;
20497;SDS011;10407;53.238;10.448;2023-11-18T09:56:33;133.60;;;24.17;;
20497;SDS011;10407;53.238;10.448;2023-11-18T10:01:48;127.50;;;23.00;;
20497;SDS011;10407;53.238;10.448;2023-11-18T10:04:17;124.47;;;23.70;;
20497;SDS011;10407;53.238;10.448;2023-11-18T10:06:51;126.87;;;26.30;;
20497;SDS011;10407;53.238;10.448;2023-11-18T10:09:19;122.07;;;22.53;;
20497;SDS011;10407;53.238;10.448;2023-11-18T10:11:49;123.47;;;23.20;;
20497;SDS011;10407;53.238;10.448;2023-11-18T10:14:18;124.07;;;24.80;;
20497;SDS011;10407;53.238;10.448;2023-11-18T10:16:45;126.90;;;25.77;;
20497;SDS011;10407;53.238;10.448;2023-11-18T10:19:13;122.23;;;24.20;;
20497;SDS011;10407;53.238;10.448;2023-11-18T10:21:43;124.80;;;25.87;;
20497;SDS011;10407;53.238;10.448;2023-11-18T10:24:12;123.67;;;24.97;;
20497;SDS011;10407;53.238;10.448;2023-11-18T10:26:55;122.73;;;22.10;;
20497;SDS011;10407;53.238;10.448;2023-11-18T10:29:25;122.47;;;23.90;;
20497;SDS011;10407;53.238;10.448;2023-11-18T10:32:04;123.60;;;24.97;;
20497;SDS011;10407;53.238;10.448;2023-11-18T10:34:36;122.80;;;23.40;;
20497;SDS011;10407;53.238;10.448;2023-11-18T10:37:05;122.67;;;21.23;;
20497;SDS011;10407;53.238;10.448;2023-11-18T10:39:34;120.50;;;22.10;;
20497;SDS011;10407;53.238;10.448;2023-11-18T10:42:04;122.67;;;24.50;;
20497;SDS011;10407;53.238;10.448;2023-11-18T10:44:31;122.97;;;22.97;;
20497;SDS011;10407;53.238;10.448;2023-11-18T10:46:59;123.70;;;23.13;;
20497;SDS011;10407;53.238;10.448;2023-11-18T10:49:27;128.60;;;25.73;;
20497;SDS011;10407;53.238;10.448;2023-11-18T10:51:57;127.23;;;23.10;;
20497;SDS011;10407;53.238;10.448;2023-11-18T10:54:24;126.00;;;25.53;;
20497;SDS011;10407;53.238;10.448;2023-11-18T10:56:52;124.17;;;22.20;;
20497;SDS011;10407;53.238;10.448;2023-11-18T10:59:22;126.27;;;23.90;;
20497;SDS011;10407;53.238;10.448;2023-11-18T11:01:51;123.97;;;24.37;;
20497;SDS011;10407;53.238;10.448;2023-11-18T11:04:19;124.97;;;25.43;;
20497;SDS011;10407;53.238;10.448;2023-11-18T11:06:50;124.63;;;25.37;;
20497;SDS011;10407;53.238;10.448;2023-11-18T11:09:23;124.97;;;26.10;;
20497;SDS011;10407;53.238;10.448;2023-11-18T11:11:57;124.17;;;24.83;;
20497;SDS011;10407;53.238;10.448;2023-11-18T11:14:28;125.67;;;25.50;;
20497;SDS011;10407;53.238;10.448;2023-11-18T11:17:06;127.47;;;26.53;;
20497;SDS011;10407;53.238;10.448;2023-11-18T11:22:33;133.20;;;26.27;;
20497;SDS011;10407;53.238;10.448;2023-11-18T11:25:16;131.60;;;26.63;;
20497;SDS011;10407;53.238;10.448;2023-11-18T11:27:47;125.47;;;25.03;;
20497;SDS011;10407;53.238;10.448;2023-11-18T11:30:22;130.27;;;26.73;;
20497;SDS011;10407;53.238;10.448;2023-11-18T11:32:53;134.07;;;26.43;;
20497;SDS011;10407;53.238;10.448;2023-11-18T11:35:30;126.90;;;25.00;;
20497;SDS011;10407;53.238;10.448;2023-11-18T11:37:57;125.90;;;23.43;;
20497;SDS011;10407;53.238;10.448;2023-11-18T11:40:29;125.17;;;25.20;;
20497;SDS011;10407;53.238;10.448;2023-11-18T11:42:58;124.67;;;23.80;;
20497;SDS011;10407;53.238;10.448;2023-11-18T11:45:29;127.67;;;25.93;;
20497;SDS011;10407;53.238;10.448;2023-11-18T11:47:57;124.00;;;22.80;;
20497;SDS011;10407;53.238;10.448;2023-11-18T11:53:20;125.20;;;24.43;;
20497;SDS011;10407;53.238;10.448;2023-11-18T11:55:52;124.50;;;23.97;;
20497;SDS011;10407;53.238;10.448;2023-11-18T11:58:26;123.27;;;21.67;;
20497;SDS011;10407;53.238;10.448;2023-11-18T12:01:00;126.60;;;25.77;;
20497;SDS011;10407;53.238;10.448;2023-11-18T12:03:32;124.60;;;24.20;;
20497;SDS011;10407;53.238;10.448;2023-11-18T12:06:02;122.50;;;23.60;;
20497;SDS011;10407;53.238;10.448;2023-11-18T12:08:34;124.07;;;26.00;;
20497;SDS011;10407;53.238;10.448;2023-11-18T12:11:05;126.70;;;25.00;;
20497;SDS011;10407;53.238;10.448;2023-11-18T12:13:38;122.07;;;23.10;;
20497;SDS011;10407;53.238;10.448;2023-11-18T12:16:06;122.77;;;23.17;;
20497;SDS011;10407;53.238;10.448;2023-11-18T12:18:35;121.97;;;21.70;;
20497;SDS011;10407;53.238;10.448;2023-11-18T12:21:03;126.13;;;24.30;;
20497;SDS011;10407;53.238;10.448;2023-11-18T12:23:31;135.83;;;26.87;;
20497;SDS011;10407;53.238;10.448;2023-11-18T12:26:00;132.37;;;25.60;;
20497;SDS011;10407;53.238;10.448;2023-11-18T12:28:32;123.20;;;23.30;;
20497;SDS011;10407;53.238;10.448;2023-11-18T12:31:01;140.97;;;30.13;;
20497;SDS011;10407;53.238;10.448;2023-11-18T12:36:37;126.20;;;26.30;;
20497;SDS011;10407;53.238;10.448;2023-11-18T12:42:04;123.30;;;21.67;;
20497;SDS011;10407;53.238;10.448;2023-11-18T12:47:37;123.50;;;24.90;;
20497;SDS011;10407;53.238;10.448;2023-11-18T12:50:08;121.57;;;22.43;;
20497;SDS011;10407;53.238;10.448;2023-11-18T12:52:39;121.27;;;21.93;;
20497;SDS011;10407;53.238;10.448;2023-11-18T12:55:09;123.63;;;25.50;;
20497;SDS011;10407;53.238;10.448;2023-11-18T12:57:45;123.40;;;22.83;;
20497;SDS011;10407;53.238;10.448;2023-11-18T13:00:11;122.50;;;22.87;;
20497;SDS011;10407;53.238;10.448;2023-11-18T13:02:41;122.90;;;24.57;;
20497;SDS011;10407;53.238;10.448;2023-11-18T13:05:10;123.40;;;25.33;;
20497;SDS011;10407;53.238;10.448;2023-11-18T13:07:39;120.40;;;20.67;;
20497;SDS011;10407;53.238;10.448;2023-11-18T13:10:09;123.67;;;24.37;;
20497;SDS011;10407;53.238;10.448;2023-11-18T13:12:38;122.77;;;22.77;;
20497;SDS011;10407;53.238;10.448;2023-11-18T13:15:06;120.60;;;21.00;;
20497;SDS011;10407;53.238;10.448;2023-11-18T13:17:34;121.30;;;22.10;;
20497;SDS011;10407;53.238;10.448;2023-11-18T13:20:14;128.07;;;26.00;;
20497;SDS011;10407;53.238;10.448;2023-11-18T13:22:43;124.40;;;24.23;;
20497;SDS011;10407;53.238;10.448;2023-11-18T13:25:11;123.77;;;24.57;;
20497;SDS011;10407;53.238;10.448;2023-11-18T13:27:40;122.87;;;22.50;;
20497;SDS011;10407;53.238;10.448;2023-11-18T13:30:08;124.40;;;24.43;;
20497;SDS011;10407;53.238;10.448;2023-11-18T13:32:39;125.00;;;24.00;;
20497;SDS011;10407;53.238;10.448;2023-11-18T13:35:08;127.73;;;25.43;;
20497;SDS011;10407;53.238;10.448;2023-11-18T13:37:38;124.73;;;24.73;;
20497;SDS011;10407;53.238;10.448;2023-11-18T13:40:10;121.67;;;22.67;;
20497;SDS011;10407;53.238;10.448;2023-11-18T13:42:38;124.37;;;25.43;;
20497;SDS011;10407;53.238;10.448;2023-11-18T13:45:13;126.47;;;26.27;;
20497;SDS011;10407;53.238;10.448;2023-11-18T13:47:51;123.77;;;24.20;;
20497;SDS011;10407;53.238;10.448;2023-11-18T13:50:22;127.37;;;23.73;;
20497;SDS011;10407;53.238;10.448;2023-11-18T13:52:50;124.90;;;26.87;;
20497;SDS011;10407;53.238;10.448;2023-11-18T13:55:19;124.30;;;25.47;;
20497;SDS011;10407;53.238;10.448;2023-11-18T13:57:54;124.10;;;25.47;;
20497;SDS011;10407;53.238;10.448;2023-11-18T14:00:28;124.07;;;24.37;;
20497;SDS011;10407;53.238;10.448;2023-11-18T14:02:55;125.07;;;25.30;;
20497;SDS011;10407;53.238;10.448;2023-11-18T14:05:23;126.10;;;25.47;;
20497;SDS011;10407;53.238;10.448;2023-11-18T14:07:51;124.47;;;25.00;;
20497;SDS011;10407;53.238;10.448;2023-11-18T14:10:24;128.07;;;27.07;;
20497;SDS011;10407;53.238;10.448;2023-11-18T14:13:08;127.97;;;26.77;;
20497;SDS011;10407;53.238;10.448;2023-11-18T14:15:34;126.77;;;26.30;;
20497;SDS011;10407;53.238;10.448;2023-11-18T14:18:02;127.80;;;24.60;;
20497;SDS011;10407;53.238;10.448;2023-11-18T14:20:36;128.47;;;27.20;;
20497;SDS011;10407;53.238;10.448;2023-11-18T14:23:04;123.17;;;22.80;;
20497;SDS011;10407;53.238;10.448;2023-11-18T14:25:31;125.70;;;24.50;;
20497;SDS011;10407;53.238;10.448;2023-11-18T14:28:01;127.77;;;27.90;;
20497;SDS011;10407;53.238;10.448;2023-11-18T14:30:29;128.70;;;27.03;;
20497;SDS011;10407;53.238;10.448;2023-11-18T14:32:56;128.10;;;27.50;;
20497;SDS011;10407;53.238;10.448;2023-11-18T14:35:24;123.67;;;22.73;;